createdAt,value
2019-02-22T00:02:21.198Z,205.47
2019-02-22T00:04:49.915Z,207.07
2019-02-22T00:07:20.022Z,212.23
2019-02-22T00:09:49.742Z,203.10
2019-02-22T00:12:19.165Z,206.60
2019-02-22T00:14:48.138Z,194.27
2019-02-22T00:17:17.025Z,192.77
2019-02-22T00:19:48.473Z,202.30
2019-02-22T00:22:16.559Z,203.27
2019-02-22T00:24:45.680Z,197.00
2019-02-22T00:27:14.557Z,198.70
2019-02-22T00:29:43.526Z,202.80
2019-02-22T00:32:12.312Z,198.00
2019-02-22T00:34:41.349Z,179.83
2019-02-22T00:37:10.119Z,186.73
2019-02-22T00:39:38.882Z,181.57
2019-02-22T00:42:07.893Z,175.73
2019-02-22T00:44:57.555Z,182.77
2019-02-22T00:47:27.410Z,183.30
2019-02-22T00:49:56.780Z,176.87
2019-02-22T00:52:25.959Z,179.77
2019-02-22T00:54:55.741Z,172.17
2019-02-22T00:57:24.856Z,166.63
2019-02-22T00:59:54.334Z,173.40
2019-02-22T01:02:23.578Z,177.53
2019-02-22T01:04:52.686Z,180.03
2019-02-22T01:07:21.757Z,177.53
2019-02-22T01:09:50.544Z,181.50
2019-02-22T01:12:19.559Z,171.43
2019-02-22T01:14:48.438Z,184.50
2019-02-22T01:17:17.645Z,177.73
2019-02-22T01:19:46.520Z,186.83
2019-02-22T01:25:11.431Z,197.87
2019-02-22T01:27:40.731Z,200.77
2019-02-22T01:30:10.444Z,208.10
2019-02-22T01:32:39.519Z,192.27
2019-02-22T01:35:08.385Z,198.47
2019-02-22T01:37:37.891Z,205.47
2019-02-22T01:40:06.984Z,209.87
2019-02-22T01:42:36.386Z,192.63
2019-02-22T01:45:06.126Z,203.33
2019-02-22T01:47:35.049Z,203.20
2019-02-22T01:50:04.182Z,210.60
2019-02-22T01:52:33.827Z,221.23
2019-02-22T01:55:03.128Z,223.37
2019-02-22T01:57:33.041Z,221.30
2019-02-22T02:00:02.163Z,246.90
2019-02-22T02:02:31.542Z,238.30
2019-02-22T02:05:00.648Z,221.47
2019-02-22T02:07:30.443Z,229.57
2019-02-22T02:09:59.486Z,221.07
2019-02-22T02:12:28.434Z,224.93
2019-02-22T02:14:57.384Z,217.50
2019-02-22T02:17:26.516Z,237.90
2019-02-22T02:19:55.508Z,221.37
2019-02-22T02:22:24.512Z,211.00
2019-02-22T02:24:53.595Z,209.90
2019-02-22T02:27:22.384Z,212.50
2019-02-22T02:29:51.031Z,199.23
2019-02-22T02:32:20.982Z,203.37
2019-02-22T02:34:49.871Z,205.97
2019-02-22T02:37:18.864Z,204.90
2019-02-22T02:39:47.550Z,200.90
2019-02-22T02:42:16.428Z,235.37
2019-02-22T02:44:45.188Z,222.83
2019-02-22T02:47:13.933Z,208.10
2019-02-22T02:49:42.906Z,206.03
2019-02-22T02:52:11.794Z,199.30
2019-02-22T02:54:40.898Z,198.00
2019-02-22T02:57:10.001Z,206.83
2019-02-22T02:59:38.899Z,197.03
2019-02-22T03:02:13.509Z,208.80
2019-02-22T03:04:42.594Z,199.77
2019-02-22T03:07:17.349Z,194.80
2019-02-22T03:09:46.334Z,203.47
2019-02-22T03:12:15.066Z,194.37
2019-02-22T03:14:43.993Z,182.97
2019-02-22T03:17:12.991Z,183.97
2019-02-22T03:19:41.979Z,184.97
2019-02-22T03:22:11.135Z,185.20
2019-02-22T03:24:39.887Z,180.83
2019-02-22T03:27:08.759Z,190.73
2019-02-22T03:29:37.641Z,185.57
2019-02-22T03:32:06.634Z,187.80
2019-02-22T03:34:35.551Z,179.17
2019-02-22T03:37:04.429Z,180.40
2019-02-22T03:39:33.304Z,185.07
2019-02-22T03:42:02.099Z,185.83
2019-02-22T03:44:31.301Z,185.30
2019-02-22T03:47:00.599Z,190.93
2019-02-22T03:49:29.475Z,179.83
2019-02-22T03:51:59.922Z,176.77
2019-02-22T03:54:28.698Z,183.80
2019-02-22T03:56:59.421Z,187.00
2019-02-22T03:59:28.517Z,171.63
2019-02-22T04:01:57.625Z,185.43
2019-02-22T04:04:26.502Z,177.43
2019-02-22T04:06:55.295Z,181.20
2019-02-22T04:09:24.283Z,187.37
2019-02-22T04:11:53.134Z,192.23
2019-02-22T04:14:21.930Z,193.83
2019-02-22T04:16:50.726Z,184.07
2019-02-22T04:19:19.636Z,181.43
2019-02-22T04:21:48.549Z,178.40
2019-02-22T04:24:17.319Z,185.80
2019-02-22T04:26:46.101Z,172.43
2019-02-22T04:29:14.889Z,169.60
2019-02-22T04:31:43.726Z,176.17
2019-02-22T04:34:12.535Z,179.97
2019-02-22T04:36:41.355Z,178.73
2019-02-22T04:39:10.244Z,160.87
2019-02-22T04:41:39.240Z,171.97
2019-02-22T04:44:08.231Z,172.97
2019-02-22T04:46:36.984Z,169.63
2019-02-22T04:49:05.905Z,173.33
2019-02-22T04:51:34.811Z,169.40
2019-02-22T04:54:03.693Z,173.53
2019-02-22T04:56:33.096Z,161.20
2019-02-22T04:59:02.106Z,172.43
2019-02-22T05:01:31.073Z,161.97
2019-02-22T05:04:01.457Z,163.23
2019-02-22T05:06:30.705Z,163.07
2019-02-22T05:08:59.688Z,160.60
2019-02-22T05:11:29.033Z,167.17
2019-02-22T05:13:58.085Z,156.50
2019-02-22T05:16:28.305Z,151.63
2019-02-22T05:18:57.224Z,145.50
2019-02-22T05:21:26.291Z,156.97
2019-02-22T05:23:55.388Z,151.00
2019-02-22T05:26:24.608Z,155.50
2019-02-22T05:28:53.369Z,147.67
2019-02-22T05:31:22.465Z,145.93
2019-02-22T05:33:51.257Z,142.50
2019-02-22T05:36:20.244Z,148.33
2019-02-22T05:38:49.237Z,149.50
2019-02-22T05:41:18.237Z,150.73
2019-02-22T05:43:47.118Z,148.00
2019-02-22T05:46:16.075Z,151.13
2019-02-22T05:48:44.952Z,149.23
2019-02-22T05:51:13.788Z,143.73
2019-02-22T05:53:42.786Z,154.50
2019-02-22T05:56:11.979Z,142.00
2019-02-22T05:58:52.347Z,158.93
2019-02-22T06:01:21.229Z,155.47
2019-02-22T06:03:50.427Z,152.07
2019-02-22T06:06:19.635Z,158.47
2019-02-22T06:08:48.637Z,155.33
2019-02-22T06:11:17.722Z,155.63
2019-02-22T06:13:46.808Z,168.20
2019-02-22T06:16:15.397Z,160.10
2019-02-22T06:18:44.380Z,174.40
2019-02-22T06:21:15.269Z,162.33
2019-02-22T06:23:44.104Z,150.73
2019-02-22T06:26:13.094Z,160.10
2019-02-22T06:28:42.193Z,157.27
2019-02-22T06:31:11.389Z,169.33
2019-02-22T06:33:40.278Z,177.17
2019-02-22T06:36:09.374Z,178.20
2019-02-22T06:38:38.163Z,174.37
2019-02-22T06:41:07.156Z,163.07
2019-02-22T06:43:37.106Z,163.50
2019-02-22T06:46:05.770Z,149.70
2019-02-22T06:48:34.541Z,154.60
2019-02-22T06:51:03.289Z,167.20
2019-02-22T06:53:32.938Z,164.40
2019-02-22T06:56:01.549Z,170.57
2019-02-22T06:58:30.611Z,163.60
2019-02-22T07:00:59.625Z,163.43
2019-02-22T07:03:28.459Z,164.03
2019-02-22T07:05:57.660Z,170.10
2019-02-22T07:08:26.583Z,148.57
2019-02-22T07:11:17.086Z,159.37
2019-02-22T07:13:46.068Z,169.00
2019-02-22T07:16:14.962Z,163.00
2019-02-22T07:18:43.745Z,155.43
2019-02-22T07:21:13.353Z,169.40
2019-02-22T07:23:42.248Z,146.90
2019-02-22T07:26:11.033Z,147.67
2019-02-22T07:28:40.125Z,132.63
2019-02-22T07:31:08.913Z,143.73
2019-02-22T07:33:37.802Z,143.80
2019-02-22T07:36:06.552Z,150.70
2019-02-22T07:38:35.586Z,158.53
2019-02-22T07:41:04.499Z,179.63
2019-02-22T07:43:33.374Z,191.10
2019-02-22T07:46:02.460Z,183.93
2019-02-22T07:48:31.246Z,186.83
2019-02-22T07:51:00.347Z,172.67
2019-02-22T07:53:29.336Z,160.83
2019-02-22T07:55:58.329Z,156.63
2019-02-22T07:58:26.910Z,168.73
2019-02-22T08:00:56.004Z,174.12
2019-02-22T08:03:24.893Z,196.30
2019-02-22T08:05:53.750Z,192.23
2019-02-22T08:08:22.434Z,185.70
2019-02-22T08:10:51.228Z,168.40
2019-02-22T08:13:20.368Z,144.40
2019-02-22T08:15:49.138Z,152.93
2019-02-22T08:18:18.302Z,144.10
2019-02-22T08:20:47.121Z,136.37
2019-02-22T08:23:15.911Z,141.55
2019-02-22T08:25:44.715Z,148.50
2019-02-22T08:28:13.801Z,130.00
2019-02-22T08:30:42.686Z,136.20
2019-02-22T08:33:11.577Z,139.27
2019-02-22T08:35:40.588Z,128.40
2019-02-22T08:38:09.561Z,122.50
2019-02-22T08:40:38.448Z,124.90
2019-02-22T08:43:07.142Z,123.40
2019-02-22T08:45:35.884Z,119.77
2019-02-22T08:48:04.671Z,122.47
2019-02-22T08:50:33.702Z,110.73
2019-02-22T08:53:02.398Z,120.70
2019-02-22T08:55:31.278Z,117.87
2019-02-22T08:58:00.068Z,97.43
2019-02-22T09:00:28.954Z,116.97
2019-02-22T09:02:58.073Z,131.23
2019-02-22T09:05:27.142Z,135.55
2019-02-22T09:07:56.034Z,139.23
2019-02-22T09:10:24.822Z,142.40
2019-02-22T09:12:53.609Z,142.63
2019-02-22T09:15:22.571Z,138.53
2019-02-22T09:17:51.491Z,136.97
2019-02-22T09:20:21.302Z,143.30
2019-02-22T09:22:50.670Z,139.80
2019-02-22T09:25:19.595Z,145.97
2019-02-22T09:27:48.761Z,165.20
2019-02-22T09:30:17.600Z,166.33
2019-02-22T09:32:46.574Z,174.43
2019-02-22T09:35:15.462Z,170.60
2019-02-22T09:37:44.727Z,176.60
2019-02-22T09:40:14.832Z,184.37
2019-02-22T09:42:44.152Z,196.20
2019-02-22T09:45:13.079Z,201.60
2019-02-22T09:47:42.125Z,204.03
2019-02-22T09:50:11.273Z,196.50
2019-02-22T09:52:40.218Z,206.17
2019-02-22T09:55:09.835Z,213.33
2019-02-22T09:57:38.769Z,201.30
2019-02-22T10:00:08.836Z,216.07
2019-02-22T10:02:37.652Z,207.20
2019-02-22T10:05:06.867Z,202.20
2019-02-22T10:07:35.814Z,216.03
2019-02-22T10:10:04.638Z,201.00
2019-02-22T10:12:33.627Z,204.07
2019-02-22T10:15:14.652Z,198.70
2019-02-22T10:17:43.564Z,210.30
2019-02-22T10:20:12.443Z,196.83
2019-02-22T10:22:41.337Z,206.47
2019-02-22T10:25:10.225Z,193.77
2019-02-22T10:27:39.220Z,198.03
2019-02-22T10:30:08.245Z,201.53
2019-02-22T10:32:37.310Z,189.37
2019-02-22T10:35:06.144Z,193.40
2019-02-22T10:37:35.120Z,192.20
2019-02-22T10:40:04.317Z,190.73
2019-02-22T10:42:33.206Z,205.20
2019-02-22T10:45:02.506Z,189.30
2019-02-22T10:47:31.398Z,187.97
2019-02-22T10:50:00.396Z,200.23
2019-02-22T10:52:29.383Z,206.73
2019-02-22T10:54:58.387Z,191.17
2019-02-22T10:57:27.529Z,197.93
2019-02-22T10:59:56.466Z,198.07
2019-02-22T11:02:25.354Z,217.00
2019-02-22T11:04:55.391Z,212.50
2019-02-22T11:07:24.051Z,206.63
2019-02-22T11:09:53.144Z,208.17
2019-02-22T11:12:22.037Z,203.20
2019-02-22T11:14:51.333Z,199.23
2019-02-22T11:17:20.225Z,192.30
2019-02-22T11:19:49.038Z,193.73
2019-02-22T11:22:18.107Z,186.90
2019-02-22T11:24:46.797Z,189.77
2019-02-22T11:27:15.778Z,188.00
2019-02-22T11:29:44.625Z,189.60
2019-02-22T11:32:13.436Z,186.63
2019-02-22T11:34:42.249Z,188.27
2019-02-22T11:37:11.343Z,183.50
2019-02-22T11:39:40.239Z,189.23
2019-02-22T11:42:09.124Z,177.70
2019-02-22T11:44:40.462Z,171.37
2019-02-22T11:47:08.440Z,174.13
2019-02-22T11:49:37.537Z,181.00
2019-02-22T11:52:06.649Z,157.13
2019-02-22T11:54:35.726Z,171.57
2019-02-22T11:57:05.261Z,175.83
2019-02-22T11:59:33.914Z,168.57
2019-02-22T12:02:02.909Z,176.17
2019-02-22T12:04:31.595Z,175.10
2019-02-22T12:07:25.506Z,165.97
2019-02-22T12:09:54.473Z,184.23
2019-02-22T12:12:23.452Z,168.27
2019-02-22T12:14:52.474Z,178.97
2019-02-22T12:17:21.640Z,166.07
2019-02-22T12:19:51.578Z,167.47
2019-02-22T12:22:20.412Z,157.57
2019-02-22T12:24:49.238Z,160.50
2019-02-22T12:27:19.265Z,155.33
2019-02-22T12:29:48.346Z,152.40
2019-02-22T12:32:18.314Z,156.93
2019-02-22T12:34:47.249Z,153.53
2019-02-22T12:37:17.679Z,161.73
2019-02-22T12:39:46.669Z,155.40
2019-02-22T12:42:15.454Z,148.80
2019-02-22T12:44:44.448Z,142.43
2019-02-22T12:47:13.339Z,144.90
2019-02-22T12:49:43.311Z,141.70
2019-02-22T12:52:12.000Z,144.53
2019-02-22T12:54:40.942Z,136.80
2019-02-22T12:57:09.922Z,139.37
2019-02-22T12:59:38.811Z,146.10
2019-02-22T13:02:07.598Z,144.10
2019-02-22T13:04:36.492Z,139.95
2019-02-22T13:07:06.270Z,135.23
2019-02-22T13:09:36.902Z,146.03
2019-02-22T13:12:13.921Z,148.67
2019-02-22T13:14:38.042Z,146.97
2019-02-22T13:17:06.777Z,140.10
2019-02-22T13:19:35.780Z,136.13
2019-02-22T13:22:04.555Z,135.10
2019-02-22T13:24:33.651Z,139.63
2019-02-22T13:27:02.542Z,137.77
2019-02-22T13:29:31.195Z,133.07
2019-02-22T13:32:00.030Z,134.60
2019-02-22T13:34:28.907Z,139.93
2019-02-22T13:36:57.999Z,141.23
2019-02-22T13:39:26.704Z,138.17
2019-02-22T13:41:55.548Z,134.57
2019-02-22T13:44:24.276Z,138.10
2019-02-22T13:46:53.150Z,140.00
2019-02-22T13:49:22.348Z,133.40
2019-02-22T13:51:51.405Z,138.60
2019-02-22T13:54:20.251Z,137.50
2019-02-22T13:56:49.022Z,143.35
2019-02-22T13:59:18.012Z,139.93
2019-02-22T14:01:46.695Z,131.53
2019-02-22T14:04:15.790Z,140.10
2019-02-22T14:06:44.578Z,125.10
2019-02-22T14:09:13.590Z,130.43
2019-02-22T14:11:42.540Z,128.63
2019-02-22T14:14:11.558Z,119.30
2019-02-22T14:16:40.445Z,119.73
2019-02-22T14:19:09.254Z,126.43
2019-02-22T14:21:38.223Z,139.43
2019-02-22T14:24:06.932Z,135.47
2019-02-22T14:26:36.381Z,131.63
2019-02-22T14:29:05.098Z,128.17
2019-02-22T14:31:33.887Z,129.65
2019-02-22T14:34:02.598Z,132.37
2019-02-22T14:36:31.564Z,131.00
2019-02-22T14:39:00.453Z,134.10
2019-02-22T14:41:29.622Z,131.40
2019-02-22T14:43:58.300Z,136.80
2019-02-22T14:46:28.250Z,135.33
2019-02-22T14:48:57.249Z,136.90
2019-02-22T14:51:26.235Z,132.83
2019-02-22T14:53:56.330Z,131.97
2019-02-22T14:56:24.999Z,131.03
2019-02-22T14:58:53.929Z,135.33
2019-02-22T15:01:22.613Z,133.03
2019-02-22T15:03:51.408Z,131.57
2019-02-22T15:06:20.212Z,140.70
2019-02-22T15:08:48.995Z,136.73
2019-02-22T15:11:18.123Z,129.57
2019-02-22T15:13:47.077Z,133.33
2019-02-22T15:16:47.289Z,136.00
2019-02-22T15:19:16.864Z,143.13
2019-02-22T15:21:46.158Z,134.73
2019-02-22T15:24:15.621Z,137.93
2019-02-22T15:26:44.594Z,141.33
2019-02-22T15:29:13.277Z,140.63
2019-02-22T15:31:42.069Z,147.47
2019-02-22T15:34:12.089Z,141.27
2019-02-22T15:36:41.172Z,140.90
2019-02-22T15:39:10.373Z,150.30
2019-02-22T15:41:40.968Z,140.47
2019-02-22T15:44:09.912Z,138.80
2019-02-22T15:46:39.188Z,149.90
2019-02-22T15:49:08.154Z,129.30
2019-02-22T15:51:38.213Z,139.43
2019-02-22T15:54:07.298Z,139.93
2019-02-22T15:56:35.980Z,141.00
2019-02-22T15:59:04.869Z,144.80
2019-02-22T16:01:33.761Z,141.53
2019-02-22T16:04:10.033Z,151.00
2019-02-22T16:06:38.617Z,145.50
2019-02-22T16:09:08.621Z,145.40
2019-02-22T16:11:39.457Z,158.93
2019-02-22T16:14:08.551Z,148.50
2019-02-22T16:16:37.855Z,145.20
2019-02-22T16:19:06.947Z,150.27
2019-02-22T16:21:36.859Z,157.93
2019-02-22T16:24:05.648Z,152.03
2019-02-22T16:26:34.407Z,160.20
2019-02-22T16:29:03.288Z,155.77
2019-02-22T16:31:32.492Z,155.50
2019-02-22T16:34:01.372Z,161.93
2019-02-22T16:36:30.098Z,168.43
2019-02-22T16:38:58.989Z,167.03
2019-02-22T16:41:28.186Z,175.20
2019-02-22T16:43:57.079Z,170.00
2019-02-22T16:46:34.390Z,167.70
2019-02-22T16:48:56.665Z,168.57
2019-02-22T16:51:25.485Z,162.80
2019-02-22T16:53:54.272Z,184.63
2019-02-22T16:56:23.165Z,168.10
2019-02-22T16:58:52.059Z,167.80
2019-02-22T17:01:20.841Z,176.07
2019-02-22T17:03:49.709Z,171.80
2019-02-22T17:06:18.639Z,170.20
2019-02-22T17:08:47.468Z,162.83
2019-02-22T17:11:16.364Z,175.10
2019-02-22T17:13:45.296Z,165.83
2019-02-22T17:16:16.527Z,170.93
2019-02-22T17:19:09.822Z,166.27
2019-02-22T17:21:38.996Z,173.73
2019-02-22T17:24:08.052Z,168.77
2019-02-22T17:26:36.878Z,174.87
2019-02-22T17:29:05.662Z,172.90
2019-02-22T17:31:34.553Z,186.00
2019-02-22T17:34:03.443Z,184.37
2019-02-22T17:36:32.845Z,175.47
2019-02-22T17:39:01.653Z,201.50
2019-02-22T17:41:32.583Z,189.90
2019-02-22T17:44:01.260Z,187.88
2019-02-22T17:46:30.018Z,193.83
2019-02-22T17:48:58.811Z,183.17
2019-02-22T17:51:27.891Z,187.90
2019-02-22T17:53:56.818Z,182.50
2019-02-22T17:56:26.500Z,181.03
2019-02-22T17:58:55.406Z,184.63
2019-02-22T18:01:24.275Z,182.40
2019-02-22T18:03:53.259Z,184.05
2019-02-22T18:06:22.189Z,188.40
2019-02-22T18:08:51.708Z,176.40
2019-02-22T18:11:20.599Z,192.10
2019-02-22T18:13:49.455Z,196.50
2019-02-22T18:16:18.349Z,194.83
2019-02-22T18:18:48.382Z,197.27
2019-02-22T18:21:19.376Z,197.97
2019-02-22T18:23:49.018Z,206.30
2019-02-22T18:26:18.263Z,205.70
2019-02-22T18:28:47.047Z,210.43
2019-02-22T18:31:16.035Z,214.07
2019-02-22T18:33:44.790Z,207.98
2019-02-22T18:36:13.888Z,208.50
2019-02-22T18:38:42.882Z,207.40
2019-02-22T18:41:11.870Z,199.70
2019-02-22T18:43:41.170Z,199.63
2019-02-22T18:46:10.267Z,206.30
2019-02-22T18:48:39.271Z,198.43
2019-02-22T18:51:08.424Z,206.23
2019-02-22T18:53:37.521Z,198.27
2019-02-22T18:56:06.460Z,203.13
2019-02-22T18:58:35.298Z,210.17
2019-02-22T19:01:04.291Z,205.67
2019-02-22T19:03:33.386Z,199.40
2019-02-22T19:06:02.281Z,204.37
2019-02-22T19:08:32.745Z,210.70
2019-02-22T19:11:02.567Z,213.20
2019-02-22T19:13:31.436Z,202.00
2019-02-22T19:16:00.733Z,206.10
2019-02-22T19:18:29.625Z,204.93
2019-02-22T19:20:58.719Z,206.77
2019-02-22T19:23:27.759Z,212.43
2019-02-22T19:25:56.411Z,195.83
2019-02-22T19:28:26.447Z,181.67
2019-02-22T19:30:55.370Z,191.97
2019-02-22T19:33:24.258Z,166.60
2019-02-22T19:35:53.289Z,166.83
2019-02-22T19:38:22.280Z,159.57
2019-02-22T19:40:51.440Z,153.53
2019-02-22T19:43:20.438Z,138.43
2019-02-22T19:45:49.433Z,132.47
2019-02-22T19:48:18.425Z,128.53
2019-02-22T19:50:47.413Z,111.27
2019-02-22T19:53:16.439Z,98.13
2019-02-22T19:55:45.328Z,94.77
2019-02-22T19:58:14.483Z,82.90
2019-02-22T20:00:43.621Z,82.70
2019-02-22T20:03:13.318Z,79.53
2019-02-22T20:05:43.491Z,93.53
2019-02-22T20:08:13.333Z,89.20
2019-02-22T20:10:43.105Z,83.90
2019-02-22T20:13:12.802Z,85.43
2019-02-22T20:15:42.759Z,83.47
2019-02-22T20:18:11.686Z,85.33
2019-02-22T20:20:40.701Z,79.00
2019-02-22T20:23:10.433Z,78.30
2019-02-22T20:25:39.247Z,77.60
2019-02-22T20:28:08.169Z,80.33
2019-02-22T20:30:37.644Z,81.07
2019-02-22T20:33:06.730Z,79.50
2019-02-22T20:35:35.725Z,81.37
2019-02-22T20:38:04.745Z,78.67
2019-02-22T20:40:33.711Z,79.77
2019-02-22T20:43:02.600Z,85.10
2019-02-22T20:45:31.593Z,74.93
2019-02-22T20:48:05.109Z,75.10
2019-02-22T20:50:32.247Z,72.97
2019-02-22T20:53:01.184Z,71.57
2019-02-22T20:55:30.159Z,75.07
2019-02-22T20:57:59.153Z,66.27
2019-02-22T21:00:28.346Z,74.13
2019-02-22T21:02:56.946Z,63.97
2019-02-22T21:05:26.656Z,59.03
2019-02-22T21:07:55.632Z,67.47
2019-02-22T21:10:24.521Z,74.87
2019-02-22T21:12:53.513Z,60.67
2019-02-22T21:15:22.405Z,61.13
2019-02-22T21:17:51.504Z,52.60
2019-02-22T21:20:20.493Z,52.57
2019-02-22T21:22:49.590Z,49.73
2019-02-22T21:25:19.116Z,52.27
2019-02-22T21:27:47.750Z,51.37
2019-02-22T21:30:16.387Z,50.57
2019-02-22T21:32:45.583Z,49.63
2019-02-22T21:35:15.383Z,75.37
2019-02-22T21:37:44.123Z,75.70
2019-02-22T21:40:13.009Z,48.97
2019-02-22T21:42:41.835Z,47.13
2019-02-22T21:45:10.827Z,41.67
2019-02-22T21:47:39.614Z,38.20
2019-02-22T21:50:10.515Z,41.03
2019-02-22T21:52:40.260Z,31.80
2019-02-22T21:55:09.252Z,27.50
2019-02-22T21:57:38.144Z,38.17
2019-02-22T22:00:08.554Z,59.77
2019-02-22T22:02:37.770Z,55.53
2019-02-22T22:05:06.759Z,71.03
2019-02-22T22:07:35.649Z,88.30
2019-02-22T22:10:04.552Z,101.90
2019-02-22T22:12:34.555Z,115.63
2019-02-22T22:15:03.552Z,125.40
2019-02-22T22:17:32.711Z,126.60
2019-02-22T22:20:01.432Z,117.73
2019-02-22T22:22:30.425Z,116.83
2019-02-22T22:24:59.107Z,114.63
2019-02-22T22:27:28.100Z,104.67
2019-02-22T22:29:56.992Z,100.73
2019-02-22T22:32:26.055Z,101.20
2019-02-22T22:34:54.886Z,99.87
2019-02-22T22:37:23.763Z,98.33
2019-02-22T22:39:52.555Z,110.20
2019-02-22T22:42:21.485Z,107.17
2019-02-22T22:44:50.315Z,126.00
2019-02-22T22:47:19.021Z,152.93
2019-02-22T22:49:48.113Z,128.40
2019-02-22T22:52:16.915Z,142.33
2019-02-22T22:54:45.808Z,133.83
2019-02-22T22:57:14.689Z,144.83
2019-02-22T22:59:43.773Z,142.23
2019-02-22T23:02:13.674Z,129.07
2019-02-22T23:04:42.437Z,139.57
2019-02-22T23:07:12.287Z,138.07
2019-02-22T23:09:41.381Z,144.87
2019-02-22T23:12:10.955Z,146.00
2019-02-22T23:14:39.903Z,139.67
2019-02-22T23:17:08.665Z,147.93
2019-02-22T23:19:37.362Z,140.90
2019-02-22T23:22:06.446Z,140.00
2019-02-22T23:24:35.337Z,140.93
2019-02-22T23:27:04.429Z,131.30
2019-02-22T23:29:33.322Z,120.20
2019-02-22T23:32:02.318Z,124.90
2019-02-22T23:34:31.201Z,127.43
2019-02-22T23:37:00.196Z,126.17
2019-02-22T23:39:29.185Z,134.37
2019-02-22T23:41:57.988Z,122.20
2019-02-22T23:44:27.069Z,126.33
2019-02-22T23:46:55.855Z,122.27
2019-02-22T23:49:24.717Z,114.97
2019-02-22T23:51:53.494Z,108.30
2019-02-22T23:54:22.322Z,103.53
2019-02-22T23:56:51.179Z,89.30
2019-02-22T23:59:20.206Z,88.10
